Time;durP1;ratioP1;P1;durP2;ratioP2;P2;SDS_P1;SDS_P2;PMS_P1;PMS_P2;Temp;Humidity;BMP_temperature;BMP_pressure;BME280_temperature;BME280_humidity;BME280_pressure;Samples;Min_cycle;Max_cycle;Signal;HPM_P1;HPM_P2
2024/02/17 00:02:20;;;;;;;6.53;4.30;;;;;;;-146.29;100.00;59205.81;5029324;28;20432;-71
2024/02/17 00:04:45;;;;;;;6.30;4.60;;;;;;;-146.29;100.00;59205.81;5028723;28;20183;-71
2024/02/17 00:07:11;;;;;;;6.30;4.77;;;;;;;-146.29;100.00;59205.81;5029257;28;20234;-70
2024/02/17 00:09:36;;;;;;;8.67;4.40;;;;;;;-146.29;100.00;59205.81;5035202;28;20184;-71
2024/02/17 00:12:02;;;;;;;7.80;4.40;;;;;;;-146.29;100.00;59205.81;5038421;28;20230;-70
2024/02/17 00:14:27;;;;;;;5.73;4.97;;;;;;;-146.29;100.00;59205.81;5032445;28;20681;-70
2024/02/17 00:16:53;;;;;;;5.60;4.73;;;;;;;-146.29;100.00;59205.81;5031143;28;20199;-70
2024/02/17 00:19:18;;;;;;;13.37;4.93;;;;;;;-146.29;100.00;59205.81;5035822;28;20190;-70
2024/02/17 00:21:44;;;;;;;6.10;4.77;;;;;;;-146.29;100.00;59205.81;5034439;28;20237;-72
2024/02/17 00:24:09;;;;;;;9.10;4.77;;;;;;;-146.29;100.00;59205.81;5020884;28;20176;-70
2024/02/17 00:26:37;;;;;;;7.37;4.20;;;;;;;-146.29;100.00;59205.81;5028741;28;20315;-71
2024/02/17 00:29:03;;;;;;;5.50;3.90;;;;;;;-146.29;100.00;59205.81;5028352;28;20187;-70
2024/02/17 00:31:28;;;;;;;6.00;3.73;;;;;;;-146.29;100.00;59205.81;5029259;28;20514;-70
2024/02/17 00:33:54;;;;;;;6.17;3.80;;;;;;;-146.29;100.00;59205.81;5029622;28;20215;-70
2024/02/17 00:36:19;;;;;;;5.83;3.93;;;;;;;-146.29;100.00;59205.81;5030786;28;20179;-70
2024/02/17 00:38:44;;;;;;;7.40;4.03;;;;;;;-146.29;100.00;59205.81;5028118;28;20275;-72
2024/02/17 00:41:10;;;;;;;5.50;3.97;;;;;;;-146.29;100.00;59205.81;5031599;28;20262;-70
2024/02/17 00:43:36;;;;;;;5.53;4.03;;;;;;;-146.29;100.00;59205.81;5027822;28;20180;-71
2024/02/17 00:46:01;;;;;;;9.10;4.47;;;;;;;-146.29;100.00;59205.81;5028007;28;20429;-70
2024/02/17 00:48:27;;;;;;;6.77;4.10;;;;;;;-146.29;100.00;59205.81;5040150;28;20199;-70
2024/02/17 00:50:53;;;;;;;12.50;4.10;;;;;;;-146.29;100.00;59205.81;5029779;28;20180;-71
2024/02/17 00:53:18;;;;;;;6.00;4.30;;;;;;;-146.29;100.00;59205.81;5035043;28;20207;-69
2024/02/17 00:55:44;;;;;;;5.57;4.57;;;;;;;-146.29;100.00;59205.81;5029920;28;20183;-68
2024/02/17 00:58:09;;;;;;;7.70;4.67;;;;;;;-146.29;100.00;59205.81;5027463;28;20250;-70
2024/02/17 01:00:35;;;;;;;5.87;4.70;;;;;;;-146.29;100.00;59205.81;5032277;28;20232;-72
2024/02/17 01:03:00;;;;;;;9.23;5.40;;;;;;;-146.29;100.00;59205.81;5027762;28;20183;-70
2024/02/17 01:05:26;;;;;;;10.30;4.70;;;;;;;-146.29;100.00;59205.81;5029739;28;20181;-70
2024/02/17 01:07:51;;;;;;;7.20;4.30;;;;;;;-146.29;100.00;59205.81;5031885;28;20219;-70
2024/02/17 01:10:17;;;;;;;5.00;4.00;;;;;;;-146.29;100.00;59205.81;5027837;28;20250;-71
2024/02/17 01:12:43;;;;;;;9.40;4.67;;;;;;;-146.29;100.00;59205.81;5027503;28;20215;-70
2024/02/17 01:15:09;;;;;;;9.87;4.97;;;;;;;-146.29;100.00;59205.81;5028054;28;20191;-71
2024/02/17 01:17:35;;;;;;;4.83;4.43;;;;;;;-146.29;100.00;59205.81;5028566;28;20313;-72
2024/02/17 01:20:00;;;;;;;11.33;5.00;;;;;;;-146.29;100.00;59205.81;5026695;28;20442;-71
2024/02/17 01:22:26;;;;;;;8.47;5.50;;;;;;;-146.29;100.00;59205.81;5026879;28;20184;-70
2024/02/17 01:24:51;;;;;;;10.30;5.27;;;;;;;-146.29;100.00;59205.81;5029484;28;20191;-70
2024/02/17 01:27:16;;;;;;;7.57;4.80;;;;;;;-146.29;100.00;59205.81;5026430;28;20216;-70
2024/02/17 01:29:42;;;;;;;7.33;5.07;;;;;;;-146.29;100.00;59205.81;5033428;28;20795;-72
2024/02/17 01:32:07;;;;;;;7.87;4.53;;;;;;;-146.29;100.00;59205.81;5030621;28;20187;-71
2024/02/17 01:34:33;;;;;;;10.53;4.90;;;;;;;-146.29;100.00;59205.81;5027613;28;20246;-70
2024/02/17 01:36:58;;;;;;;6.20;4.97;;;;;;;-146.29;100.00;59205.81;5027305;28;20870;-70
2024/02/17 01:39:25;;;;;;;9.13;5.03;;;;;;;-146.29;100.00;59205.81;5027585;28;20307;-71
2024/02/17 01:41:50;;;;;;;7.87;4.77;;;;;;;-146.29;100.00;59205.81;5035606;28;20194;-71
2024/02/17 01:44:16;;;;;;;7.90;4.90;;;;;;;-146.29;100.00;59205.81;5026936;28;21197;-70
2024/02/17 01:46:41;;;;;;;8.80;5.20;;;;;;;-146.29;100.00;59205.81;5038862;28;20215;-71
2024/02/17 01:49:07;;;;;;;5.10;4.00;;;;;;;-146.29;100.00;59205.81;5029474;28;20179;-70
2024/02/17 01:51:33;;;;;;;5.17;4.60;;;;;;;-146.29;100.00;59205.81;5048665;28;20258;-70
2024/02/17 01:53:58;;;;;;;4.80;4.13;;;;;;;-146.29;100.00;59205.81;5032840;28;20727;-72
2024/02/17 01:56:24;;;;;;;5.00;3.70;;;;;;;-146.29;100.00;59205.81;5035146;28;20683;-70
2024/02/17 01:58:52;;;;;;;5.70;3.90;;;;;;;-146.29;100.00;59205.81;5027341;28;20195;-71
2024/02/17 02:01:18;;;;;;;5.07;3.80;;;;;;;-146.29;100.00;59205.81;5041988;28;20930;-69
2024/02/17 02:03:43;;;;;;;6.50;3.83;;;;;;;-146.29;100.00;59205.81;5025983;28;20433;-71
2024/02/17 02:06:09;;;;;;;9.47;4.10;;;;;;;-146.29;100.00;59205.81;5026781;28;20200;-71
2024/02/17 02:08:34;;;;;;;5.10;4.07;;;;;;;-146.29;100.00;59205.81;5027026;28;20693;-70
2024/02/17 02:11:02;;;;;;;7.13;3.70;;;;;;;-146.29;100.00;59205.81;5030842;28;20366;-71
2024/02/17 02:13:28;;;;;;;6.03;3.70;;;;;;;-146.29;100.00;59205.81;5026852;28;20299;-72
2024/02/17 02:15:54;;;;;;;5.07;3.70;;;;;;;-146.29;100.00;59205.81;5025658;28;20423;-70
2024/02/17 02:18:19;;;;;;;6.73;3.57;;;;;;;-146.29;100.00;59205.81;5026116;28;20253;-71
2024/02/17 02:20:45;;;;;;;6.97;3.87;;;;;;;-146.29;100.00;59205.81;5034158;28;20384;-71
2024/02/17 02:23:10;;;;;;;7.70;3.73;;;;;;;-146.29;100.00;59205.81;5028773;28;20218;-70
2024/02/17 02:25:37;;;;;;;6.20;3.40;;;;;;;-146.29;100.00;59205.81;5031456;28;20194;-70
2024/02/17 02:28:02;;;;;;;5.37;3.57;;;;;;;-146.29;100.00;59205.81;5026019;28;20778;-70
2024/02/17 02:30:28;;;;;;;3.80;3.00;;;;;;;-146.29;100.00;59205.81;5026396;28;20423;-71
2024/02/17 02:32:59;;;;;;;2.93;2.47;;;;;;;-146.29;100.00;59205.81;5027064;28;20246;-70
2024/02/17 02:35:24;;;;;;;1.93;1.80;;;;;;;-146.29;100.00;59205.81;5024849;28;20274;-70
2024/02/17 02:37:50;;;;;;;3.20;2.13;;;;;;;-146.29;100.00;59205.81;5031787;28;20867;-70
2024/02/17 02:40:15;;;;;;;3.53;2.53;;;;;;;-146.29;100.00;59205.81;5022453;28;20207;-70
2024/02/17 02:42:41;;;;;;;2.90;2.70;;;;;;;-146.29;100.00;59205.81;5030489;28;20184;-71
2024/02/17 02:45:06;;;;;;;3.50;3.20;;;;;;;-146.29;100.00;59205.81;5027178;28;20184;-71
2024/02/17 02:47:32;;;;;;;3.77;3.47;;;;;;;-146.29;100.00;59205.81;5026482;28;20215;-70
2024/02/17 02:49:59;;;;;;;4.47;4.07;;;;;;;-146.29;100.00;59205.81;5027659;28;20534;-71
2024/02/17 02:52:25;;;;;;;3.90;3.60;;;;;;;-146.29;100.00;59205.81;5033246;28;20922;-71
2024/02/17 02:54:50;;;;;;;5.00;4.50;;;;;;;-146.29;100.00;59205.81;5024339;28;20425;-71
2024/02/17 02:57:16;;;;;;;6.40;5.47;;;;;;;-146.29;100.00;59205.81;5025585;28;20200;-70
2024/02/17 02:59:41;;;;;;;7.07;4.97;;;;;;;-146.29;100.00;59205.81;5026310;28;20271;-70
2024/02/17 03:02:07;;;;;;;8.90;5.23;;;;;;;-146.29;100.00;59205.81;5026660;28;20579;-70
2024/02/17 03:04:32;;;;;;;5.83;5.23;;;;;;;-146.29;100.00;59205.81;5026293;28;20184;-71
2024/02/17 03:06:57;;;;;;;6.37;5.73;;;;;;;-146.29;100.00;59205.81;5026172;28;20214;-71
2024/02/17 03:09:23;;;;;;;9.20;6.70;;;;;;;-146.29;100.00;59205.81;5025459;28;20188;-71
2024/02/17 03:11:48;;;;;;;6.47;5.87;;;;;;;-146.29;100.00;59205.81;5029173;28;20886;-71
2024/02/17 03:14:15;;;;;;;8.30;7.17;;;;;;;-146.29;100.00;59205.81;5024822;28;20234;-70
2024/02/17 03:16:41;;;;;;;6.70;6.10;;;;;;;-146.29;100.00;59205.81;5032065;28;20211;-70
2024/02/17 03:19:07;;;;;;;11.33;6.70;;;;;;;-146.29;100.00;59205.81;5029457;28;20431;-71
2024/02/17 03:21:32;;;;;;;7.80;6.97;;;;;;;-146.29;100.00;59205.81;5026970;28;20199;-70
2024/02/17 03:23:58;;;;;;;8.40;7.40;;;;;;;-146.29;100.00;59205.81;5029725;28;20183;-71
2024/02/17 03:26:23;;;;;;;8.30;7.33;;;;;;;-146.29;100.00;59205.81;5027326;28;20195;-70
2024/02/17 03:28:48;;;;;;;9.00;7.73;;;;;;;-146.29;100.00;59205.81;5025920;28;20602;-72
2024/02/17 03:31:14;;;;;;;9.60;8.30;;;;;;;-146.29;100.00;59205.81;5025606;28;20187;-71
2024/02/17 03:33:39;;;;;;;10.03;7.47;;;;;;;-146.29;100.00;59205.81;5026091;28;20233;-70
2024/02/17 03:36:05;;;;;;;10.00;8.10;;;;;;;-146.29;100.00;59205.81;5025788;28;20180;-70
2024/02/17 03:38:31;;;;;;;9.07;8.17;;;;;;;-146.29;100.00;59205.81;5029107;28;20205;-70
2024/02/17 03:40:57;;;;;;;10.20;8.63;;;;;;;-146.29;100.00;59205.81;5029531;28;20201;-70
2024/02/17 03:43:23;;;;;;;10.60;7.70;;;;;;;-146.29;100.00;59205.81;5032124;28;20180;-70
2024/02/17 03:45:49;;;;;;;9.07;8.17;;;;;;;-146.29;100.00;59205.81;5026002;28;21052;-70
2024/02/17 03:48:14;;;;;;;11.87;9.00;;;;;;;-146.29;100.00;59205.81;5026576;28;20458;-69
2024/02/17 03:50:40;;;;;;;9.00;8.10;;;;;;;-146.29;100.00;59205.81;5027543;28;20305;-70
2024/02/17 03:53:05;;;;;;;9.90;8.63;;;;;;;-146.29;100.00;59205.81;5025706;28;20180;-73
2024/02/17 03:55:31;;;;;;;10.23;9.00;;;;;;;-146.29;100.00;59205.81;5029669;28;20188;-70
2024/02/17 03:57:56;;;;;;;8.60;7.60;;;;;;;-146.29;100.00;59205.81;5024223;28;20200;-70
2024/02/17 04:00:21;;;;;;;8.57;7.07;;;;;;;-146.29;100.00;59205.81;5035926;28;20283;-71
2024/02/17 04:02:47;;;;;;;8.70;7.70;;;;;;;-146.29;100.00;59205.81;5026032;28;20230;-70
2024/02/17 04:05:12;;;;;;;7.83;7.03;;;;;;;-146.29;100.00;59205.81;5025416;28;20183;-70
2024/02/17 04:07:41;;;;;;;8.50;6.93;;;;;;;-146.29;100.00;59205.81;5025248;28;20221;-71
2024/02/17 04:10:06;;;;;;;9.50;7.90;;;;;;;-146.29;100.00;59205.81;5033160;28;20194;-71
2024/02/17 04:12:32;;;;;;;8.07;7.27;;;;;;;-146.29;100.00;59205.81;5029745;28;20411;-70
2024/02/17 04:14:57;;;;;;;8.37;7.50;;;;;;;-146.29;100.00;59205.81;5026972;28;20200;-69
2024/02/17 04:17:23;;;;;;;14.23;6.97;;;;;;;-146.29;100.00;59205.81;5024991;28;20249;-70
2024/02/17 04:19:48;;;;;;;10.57;7.10;;;;;;;-146.29;100.00;59205.81;5024118;28;20194;-69
2024/02/17 04:22:15;;;;;;;9.33;7.80;;;;;;;-146.29;100.00;59205.81;5038251;28;20171;-69
2024/02/17 04:24:40;;;;;;;7.90;6.90;;;;;;;-146.29;100.00;59205.81;5024676;28;20764;-70
2024/02/17 04:27:08;;;;;;;9.33;7.10;;;;;;;-146.29;100.00;59205.81;5037812;28;20475;-68
2024/02/17 04:29:33;;;;;;;9.20;8.20;;;;;;;-146.29;100.00;59205.81;5027422;28;20222;-69
2024/02/17 04:31:59;;;;;;;11.07;9.00;;;;;;;-146.29;100.00;59205.81;5024988;28;22023;-69
2024/02/17 04:34:24;;;;;;;11.50;8.00;;;;;;;-146.29;100.00;59205.81;5024641;28;20188;-68
2024/02/17 04:36:50;;;;;;;8.70;7.77;;;;;;;-146.29;100.00;59205.81;5031399;28;20191;-69
2024/02/17 04:39:15;;;;;;;13.80;8.60;;;;;;;-146.29;100.00;59205.81;5025432;28;20262;-68
2024/02/17 04:41:41;;;;;;;10.60;7.47;;;;;;;-146.29;100.00;59205.81;5040221;28;20175;-70
2024/02/17 04:44:06;;;;;;;9.63;8.50;;;;;;;-146.29;100.00;59205.81;5027556;28;20235;-67
2024/02/17 04:46:31;;;;;;;15.80;7.90;;;;;;;-146.29;100.00;59205.81;5029932;28;20290;-69
2024/02/17 04:48:57;;;;;;;13.47;8.67;;;;;;;-146.29;100.00;59205.81;5036556;28;20274;-69
2024/02/17 04:51:22;;;;;;;12.77;9.53;;;;;;;-146.29;100.00;59205.81;5037232;28;20604;-69
2024/02/17 04:53:48;;;;;;;12.03;10.07;;;;;;;-146.29;100.00;59205.81;5031295;28;20183;-69
2024/02/17 04:56:14;;;;;;;11.93;8.10;;;;;;;-146.29;100.00;59205.81;5029210;28;20168;-69
2024/02/17 04:58:42;;;;;;;11.23;7.50;;;;;;;-146.29;100.00;59205.81;5031622;28;20203;-71
2024/02/17 05:01:09;;;;;;;7.40;6.50;;;;;;;-146.29;100.00;59205.81;5044056;28;20179;-69
2024/02/17 05:03:34;;;;;;;9.47;7.67;;;;;;;-146.29;100.00;59205.81;5038275;28;20415;-69
2024/02/17 05:06:00;;;;;;;10.40;7.90;;;;;;;-146.29;100.00;59205.81;5033747;28;20426;-68
2024/02/17 05:08:25;;;;;;;11.87;8.50;;;;;;;-146.29;100.00;59205.81;5037684;28;20213;-69
2024/02/17 05:10:50;;;;;;;9.93;8.27;;;;;;;-146.29;100.00;59205.81;5034502;28;20172;-69
2024/02/17 05:13:17;;;;;;;10.00;8.60;;;;;;;-146.29;100.00;59205.81;5038355;28;20725;-69
2024/02/17 05:15:43;;;;;;;11.20;8.73;;;;;;;-146.29;100.00;59205.81;5030788;28;20242;-69
2024/02/17 05:18:08;;;;;;;12.90;9.37;;;;;;;-146.29;100.00;59205.81;5029898;28;20850;-68
2024/02/17 05:20:34;;;;;;;12.53;10.17;;;;;;;-146.29;100.00;59205.81;5029904;28;20567;-69
2024/02/17 05:22:59;;;;;;;11.83;8.77;;;;;;;-146.29;100.00;59205.81;5029765;28;20179;-69
2024/02/17 05:25:25;;;;;;;11.53;10.17;;;;;;;-146.29;100.00;59205.81;5029575;28;20622;-70
2024/02/17 05:27:50;;;;;;;11.90;10.23;;;;;;;-146.29;100.00;59205.81;5037788;28;20207;-70
2024/02/17 05:30:17;;;;;;;16.87;10.47;;;;;;;-146.29;100.00;59205.81;5031137;28;20298;-69
2024/02/17 05:32:43;;;;;;;14.33;10.60;;;;;;;-146.29;100.00;59205.81;5029258;28;20188;-69
2024/02/17 05:35:09;;;;;;;12.73;10.30;;;;;;;-146.29;100.00;59205.81;5027761;28;20462;-69
2024/02/17 05:37:34;;;;;;;11.43;9.63;;;;;;;-146.29;100.00;59205.81;5040581;28;20808;-69
2024/02/17 05:40:01;;;;;;;12.23;9.93;;;;;;;-146.29;100.00;59205.81;5033214;28;20182;-68
2024/02/17 05:42:27;;;;;;;12.00;10.03;;;;;;;-146.29;100.00;59205.81;5037424;28;20627;-69
2024/02/17 05:44:52;;;;;;;15.27;10.93;;;;;;;-146.29;100.00;59205.81;5034671;28;20426;-69
2024/02/17 05:47:17;;;;;;;14.90;11.40;;;;;;;-146.29;100.00;59205.81;5028810;28;20310;-69
2024/02/17 05:49:45;;;;;;;12.53;11.20;;;;;;;-146.29;100.00;59205.81;5036823;28;20586;-69
2024/02/17 05:52:10;;;;;;;12.33;10.67;;;;;;;-146.29;100.00;59205.81;5039225;28;20180;-68
2024/02/17 05:54:36;;;;;;;14.90;12.03;;;;;;;-146.29;100.00;59205.81;5029680;28;20422;-68
2024/02/17 05:57:01;;;;;;;13.10;11.10;;;;;;;-146.29;100.00;59205.81;5033780;28;20195;-68
2024/02/17 05:59:27;;;;;;;14.20;11.90;;;;;;;-146.29;100.00;59205.81;5037760;28;20346;-68
2024/02/17 06:01:52;;;;;;;13.33;11.93;;;;;;;-146.29;100.00;59205.81;5037835;28;20545;-69
2024/02/17 06:04:18;;;;;;;14.10;11.70;;;;;;;-146.29;100.00;59205.81;5031238;28;20193;-68
2024/02/17 06:06:43;;;;;;;13.17;11.13;;;;;;;-146.29;100.00;59205.81;5036640;28;20202;-69
2024/02/17 06:09:08;;;;;;;13.83;12.00;;;;;;;-146.29;100.00;59205.81;5036962;28;20508;-69
2024/02/17 06:11:34;;;;;;;14.37;11.10;;;;;;;-146.29;100.00;59205.81;5041834;28;20282;-69
2024/02/17 06:14:00;;;;;;;12.50;10.73;;;;;;;-146.29;100.00;59205.81;5037211;28;20195;-69
2024/02/17 06:16:28;;;;;;;14.40;12.33;;;;;;;-146.29;100.00;59205.81;5026965;28;20255;-68
2024/02/17 06:21:38;;;;;;;15.37;12.30;;;;;;;-146.29;100.00;59205.81;5028502;28;20438;-70
2024/02/17 06:24:04;;;;;;;14.50;11.93;;;;;;;-146.29;100.00;59205.81;5028131;28;20422;-69
2024/02/17 06:26:30;;;;;;;17.00;13.53;;;;;;;-146.29;100.00;59205.81;5029257;28;20282;-69
2024/02/17 06:29:03;;;;;;;15.83;12.30;;;;;;;-146.29;100.00;59205.81;5027852;28;20318;-68
2024/02/17 06:31:29;;;;;;;17.10;13.43;;;;;;;-146.29;100.00;59205.81;5034211;28;20406;-69
2024/02/17 06:33:54;;;;;;;17.50;13.07;;;;;;;-146.29;100.00;59205.81;5030395;28;20425;-68
2024/02/17 06:36:21;;;;;;;14.87;12.53;;;;;;;-146.29;100.00;59205.81;5028555;28;20202;-69
2024/02/17 06:38:50;;;;;;;15.73;12.70;;;;;;;-146.29;100.00;59205.81;5030995;28;20206;-69
2024/02/17 06:41:16;;;;;;;17.73;13.47;;;;;;;-146.29;100.00;59205.81;5031673;28;20497;-69
2024/02/17 06:43:41;;;;;;;17.47;12.47;;;;;;;-146.29;100.00;59205.81;5030664;28;20518;-68
2024/02/17 06:46:07;;;;;;;20.23;15.23;;;;;;;-146.29;100.00;59205.81;5033728;28;20860;-69
2024/02/17 06:48:33;;;;;;;20.17;14.47;;;;;;;-146.29;100.00;59205.81;5035290;28;20755;-69
2024/02/17 06:50:58;;;;;;;18.10;14.40;;;;;;;-146.29;100.00;59205.81;5038152;28;20522;-69
2024/02/17 06:53:24;;;;;;;22.60;15.07;;;;;;;-146.29;100.00;59205.81;5035735;28;20632;-69
2024/02/17 06:55:49;;;;;;;18.27;15.33;;;;;;;-146.29;100.00;59205.81;5032050;28;20228;-69
2024/02/17 06:58:15;;;;;;;19.17;14.57;;;;;;;-146.29;100.00;59205.81;5036032;28;20206;-69
2024/02/17 07:00:41;;;;;;;21.33;16.10;;;;;;;-146.29;100.00;59205.81;5030242;28;20211;-69
2024/02/17 07:03:07;;;;;;;20.33;15.80;;;;;;;-146.29;100.00;59205.81;5037459;28;20205;-69
2024/02/17 07:05:34;;;;;;;21.57;15.53;;;;;;;-146.29;100.00;59205.81;5018923;28;20418;-69
2024/02/17 07:07:59;;;;;;;17.90;14.07;;;;;;;-146.29;100.00;59205.81;5033879;28;20469;-69
2024/02/17 07:10:25;;;;;;;23.00;15.87;;;;;;;-146.29;100.00;59205.81;5036686;28;20417;-69
2024/02/17 07:12:51;;;;;;;20.47;14.90;;;;;;;-146.29;100.00;59205.81;5037117;28;20178;-69
2024/02/17 07:15:16;;;;;;;19.93;15.97;;;;;;;-146.29;100.00;59205.81;5042451;28;20203;-69
2024/02/17 07:17:42;;;;;;;18.83;15.03;;;;;;;-146.29;100.00;59205.81;5030142;28;20521;-69
2024/02/17 07:20:08;;;;;;;18.50;13.93;;;;;;;-146.29;100.00;59205.81;5035367;28;20205;-69
2024/02/17 07:22:34;;;;;;;19.70;14.50;;;;;;;-146.29;100.00;59205.81;5029482;28;20176;-70
2024/02/17 07:24:59;;;;;;;17.27;13.47;;;;;;;-146.29;100.00;59205.81;5039249;28;20974;-70
2024/02/17 07:27:27;;;;;;;18.80;13.80;;;;;;;-146.29;100.00;59205.81;5027741;28;20298;-69
2024/02/17 07:29:52;;;;;;;19.20;14.20;;;;;;;-146.29;100.00;59205.81;5027855;28;20195;-70
2024/02/17 07:32:19;;;;;;;19.70;14.50;;;;;;;-146.29;100.00;59205.81;5027895;28;20434;-68
2024/02/17 07:34:46;;;;;;;21.53;13.27;;;;;;;-146.29;100.00;59205.81;5037120;28;20678;-69
2024/02/17 07:37:11;;;;;;;19.30;13.97;;;;;;;-146.29;100.00;59205.81;5027855;28;20443;-69
2024/02/17 07:39:38;;;;;;;17.83;13.60;;;;;;;-146.29;100.00;59205.81;5032053;28;20526;-70
2024/02/17 07:42:06;;;;;;;18.40;13.40;;;;;;;-146.29;100.00;59205.81;5035879;28;20179;-68
2024/02/17 07:44:32;;;;;;;18.00;12.77;;;;;;;-146.29;100.00;59205.81;5027631;28;20422;-68
2024/02/17 07:46:58;;;;;;;18.50;13.40;;;;;;;-146.29;100.00;59205.81;5027693;28;20465;-70
2024/02/17 07:49:23;;;;;;;15.20;11.57;;;;;;;-146.29;100.00;59205.81;5028932;28;20241;-69
2024/02/17 07:51:48;;;;;;;16.83;11.63;;;;;;;-146.29;100.00;59205.81;5009925;28;20738;-68
2024/02/17 07:54:14;;;;;;;15.83;11.60;;;;;;;-146.29;100.00;59205.81;5033902;28;20230;-69
2024/02/17 07:56:40;;;;;;;14.27;10.73;;;;;;;-146.29;100.00;59205.81;5031497;28;20529;-68
2024/02/17 07:59:06;;;;;;;14.37;11.10;;;;;;;-146.29;100.00;59205.81;5044298;28;20187;-68
2024/02/17 08:01:31;;;;;;;15.97;11.87;;;;;;;-146.29;100.00;59205.81;5042628;28;20713;-68
2024/02/17 08:03:57;;;;;;;13.97;10.80;;;;;;;-146.29;100.00;59205.81;5041895;28;20258;-68
2024/02/17 08:06:23;;;;;;;13.93;11.00;;;;;;;-146.29;100.00;59205.81;5038559;28;20731;-68
2024/02/17 08:08:48;;;;;;;12.53;10.53;;;;;;;-146.29;100.00;59205.81;5043960;28;20230;-68
2024/02/17 08:11:14;;;;;;;14.27;11.57;;;;;;;-146.29;100.00;59205.81;5039522;28;20176;-68
2024/02/17 08:13:41;;;;;;;15.60;11.77;;;;;;;-146.29;100.00;59205.81;5031265;28;20223;-68
2024/02/17 08:16:07;;;;;;;15.23;12.83;;;;;;;-146.29;100.00;59205.81;5035610;28;20559;-68
2024/02/17 08:18:32;;;;;;;14.80;12.00;;;;;;;-146.29;100.00;59205.81;5042011;28;20445;-68
2024/02/17 08:20:58;;;;;;;18.03;11.60;;;;;;;-146.29;100.00;59205.81;5031170;28;20805;-68
2024/02/17 08:23:28;;;;;;;14.67;11.90;;;;;;;-146.29;100.00;59205.81;5031859;28;20259;-68
2024/02/17 08:25:57;;;;;;;15.53;11.90;;;;;;;-146.29;100.00;59205.81;5034108;28;20180;-69
2024/02/17 08:28:22;;;;;;;16.20;12.03;;;;;;;-146.29;100.00;59205.81;5037645;28;20868;-68
2024/02/17 08:30:51;;;;;;;14.83;11.43;;;;;;;-146.29;100.00;59205.81;5030975;28;20415;-68
2024/02/17 08:33:16;;;;;;;18.23;13.03;;;;;;;-146.29;100.00;59205.81;5030450;28;20621;-68
2024/02/17 08:35:44;;;;;;;16.50;13.47;;;;;;;-146.29;100.00;59205.81;5030401;28;20426;-69
2024/02/17 08:38:13;;;;;;;17.73;13.37;;;;;;;-146.29;100.00;59205.81;5034365;28;20194;-68
2024/02/17 08:40:38;;;;;;;18.50;13.40;;;;;;;-146.29;100.00;59205.81;5038651;28;20466;-69
2024/02/17 08:43:07;;;;;;;19.33;14.37;;;;;;;-146.29;100.00;59205.81;5029874;28;20423;-69
2024/02/17 08:45:32;;;;;;;17.83;13.30;;;;;;;-146.29;100.00;59205.81;5038962;28;20176;-69
2024/02/17 08:47:57;;;;;;;20.00;14.37;;;;;;;-146.29;100.00;59205.81;5041660;28;20510;-70
2024/02/17 08:50:23;;;;;;;20.43;14.77;;;;;;;-146.29;100.00;59205.81;5040646;28;20193;-69
2024/02/17 08:52:49;;;;;;;19.20;12.97;;;;;;;-146.29;100.00;59205.81;5047314;28;20191;-70
2024/02/17 08:55:14;;;;;;;19.83;14.23;;;;;;;-146.29;100.00;59205.81;5042507;28;20175;-69
2024/02/17 08:57:39;;;;;;;16.17;13.30;;;;;;;-146.29;100.00;59205.81;5047544;28;20203;-71
2024/02/17 09:00:07;;;;;;;17.13;13.50;;;;;;;-146.29;100.00;59205.81;5046088;28;20184;-72
2024/02/17 09:02:32;;;;;;;19.23;14.30;;;;;;;-146.29;100.00;59205.81;5046319;28;20180;-70
2024/02/17 09:04:59;;;;;;;17.73;13.67;;;;;;;-146.29;100.00;59205.81;5038293;28;21318;-71
2024/02/17 09:07:24;;;;;;;15.33;12.67;;;;;;;-146.29;100.00;59205.81;5031717;28;20203;-70
2024/02/17 09:09:51;;;;;;;14.33;11.87;;;;;;;-146.29;100.00;59205.81;5041287;28;20795;-70
2024/02/17 09:12:17;;;;;;;15.47;11.97;;;;;;;-146.29;100.00;59205.81;5042375;28;20754;-71
2024/02/17 09:14:42;;;;;;;16.07;12.90;;;;;;;-146.29;100.00;59205.81;5037445;28;20584;-71
2024/02/17 09:17:07;;;;;;;13.93;12.10;;;;;;;-146.29;100.00;59205.81;5041331;28;20687;-70
2024/02/17 09:19:33;;;;;;;15.70;12.10;;;;;;;-146.29;100.00;59205.81;5029610;28;20684;-70
2024/02/17 09:21:58;;;;;;;11.83;10.67;;;;;;;-146.29;100.00;59205.81;5034599;28;20622;-71
2024/02/17 09:24:26;;;;;;;13.60;10.83;;;;;;;-146.29;100.00;59205.81;5032518;28;20183;-70
2024/02/17 09:26:54;;;;;;;13.80;8.77;;;;;;;-146.29;100.00;59205.81;5046918;28;20211;-72
2024/02/17 09:29:20;;;;;;;10.80;8.40;;;;;;;-146.29;100.00;59205.81;5041296;28;20980;-70
2024/02/17 09:31:45;;;;;;;14.60;8.63;;;;;;;-146.29;100.00;59205.81;5029216;28;20421;-70
2024/02/17 09:34:11;;;;;;;9.43;7.83;;;;;;;-146.29;100.00;59205.81;5028865;28;20179;-71
2024/02/17 09:36:36;;;;;;;10.80;8.23;;;;;;;-146.29;100.00;59205.81;5035490;28;20183;-70
2024/02/17 09:39:02;;;;;;;12.43;8.40;;;;;;;-146.29;100.00;59205.81;5028475;28;20233;-70
2024/02/17 09:41:28;;;;;;;10.00;8.13;;;;;;;-146.29;100.00;59205.81;5031914;28;20176;-72
2024/02/17 09:43:54;;;;;;;10.20;7.50;;;;;;;-146.29;100.00;59205.81;5034656;28;20234;-69
2024/02/17 09:46:20;;;;;;;9.77;8.10;;;;;;;-146.29;100.00;59205.81;5028389;28;20211;-71
2024/02/17 09:48:46;;;;;;;9.30;8.10;;;;;;;-146.29;100.00;59205.81;5033340;28;20569;-69
2024/02/17 09:51:11;;;;;;;7.40;6.60;;;;;;;-146.29;100.00;59205.81;5036984;28;20426;-70
2024/02/17 09:53:38;;;;;;;10.90;7.03;;;;;;;-146.29;100.00;59205.81;5029246;28;20300;-69
2024/02/17 09:56:04;;;;;;;8.50;6.13;;;;;;;-146.29;100.00;59205.81;5039873;28;20713;-69
2024/02/17 09:58:30;;;;;;;11.63;7.10;;;;;;;-146.29;100.00;59205.81;5035442;28;20445;-71
2024/02/17 10:00:57;;;;;;;6.80;6.10;;;;;;;-146.29;100.00;59205.81;5030191;28;20434;-71
2024/02/17 10:03:24;;;;;;;9.17;7.30;;;;;;;-146.29;100.00;59205.81;5023013;28;20712;-70
2024/02/17 10:05:50;;;;;;;8.07;7.03;;;;;;;-146.29;100.00;59205.81;5032643;28;20415;-69
2024/02/17 10:08:16;;;;;;;10.57;8.50;;;;;;;-146.29;100.00;59205.81;5029181;28;20469;-70
2024/02/17 10:10:43;;;;;;;9.00;7.57;;;;;;;-146.29;100.00;59205.81;5032391;28;20171;-70
2024/02/17 10:13:16;;;;;;;9.10;8.00;;;;;;;-146.29;100.00;59205.81;5025139;28;20214;-69
2024/02/17 10:15:41;;;;;;;13.90;9.47;;;;;;;-146.29;100.00;59205.81;5037587;28;20430;-70
2024/02/17 10:18:07;;;;;;;10.17;8.50;;;;;;;-146.29;100.00;59205.81;5032457;28;20489;-70
2024/02/17 10:20:32;;;;;;;12.47;8.90;;;;;;;-146.29;100.00;59205.81;5030942;28;20181;-70
2024/02/17 10:22:58;;;;;;;12.80;8.80;;;;;;;-146.29;100.00;59205.81;5033267;28;20612;-72
2024/02/17 10:25:23;;;;;;;10.30;8.97;;;;;;;-146.29;100.00;59205.81;5032891;28;20868;-69
2024/02/17 10:27:49;;;;;;;10.77;8.67;;;;;;;-146.29;100.00;59205.81;5033578;28;20204;-70
2024/02/17 10:30:20;;;;;;;9.33;7.97;;;;;;;-146.29;100.00;59205.81;5034653;28;20262;-70
2024/02/17 10:32:45;;;;;;;9.77;7.73;;;;;;;-146.29;100.00;59205.81;5027215;28;20267;-71
2024/02/17 10:35:11;;;;;;;12.90;8.27;;;;;;;-146.29;100.00;59205.81;5029752;28;20816;-71
2024/02/17 10:37:40;;;;;;;12.93;8.10;;;;;;;-146.29;100.00;59205.81;5031822;28;20219;-70
2024/02/17 10:40:08;;;;;;;11.40;7.60;;;;;;;-146.29;100.00;59205.81;5031647;28;20191;-70
2024/02/17 10:42:33;;;;;;;8.00;7.20;;;;;;;-146.29;100.00;59205.81;5031270;28;20903;-70
2024/02/17 10:45:05;;;;;;;11.40;7.17;;;;;;;-146.29;100.00;59205.81;5027422;28;20419;-70
2024/02/17 10:47:36;;;;;;;7.80;6.70;;;;;;;-146.29;100.00;59205.81;5029940;28;20817;-69
2024/02/17 10:50:15;;;;;;;9.07;7.13;;;;;;;-146.29;100.00;59205.81;5029986;28;20441;-71
2024/02/17 10:52:41;;;;;;;10.37;8.40;;;;;;;-146.29;100.00;59205.81;5037967;28;20469;-70
2024/02/17 10:55:13;;;;;;;9.57;7.07;;;;;;;-146.29;100.00;59205.81;5031992;28;20479;-71
2024/02/17 10:58:10;;;;;;;9.07;7.53;;;;;;;-146.29;100.00;59205.81;5043415;28;20446;-70
2024/02/17 11:00:40;;;;;;;9.60;7.30;;;;;;;-146.29;100.00;59205.81;5025034;28;20927;-70